createdAt,value
2024-01-15T00:01:53.267Z,0
2024-01-15T00:07:02.362Z,0
2024-01-15T00:11:52.648Z,2.5
2024-01-15T00:16:55.078Z,0
2024-01-15T00:26:54.637Z,0
2024-01-15T00:31:57.792Z,0
2024-01-15T00:36:55.250Z,0
2024-01-15T00:42:01.003Z,0
2024-01-15T00:46:57.880Z,0
2024-01-15T00:52:01.962Z,0
2024-01-15T00:56:58.329Z,0
2024-01-15T01:02:00.342Z,2.5
2024-01-15T01:06:54.736Z,0
2024-01-15T01:11:53.262Z,0
2024-01-15T01:16:52.528Z,0
2024-01-15T01:21:55.191Z,0
2024-01-15T01:26:50.490Z,0
2024-01-15T01:31:59.068Z,0
2024-01-15T01:36:57.896Z,0
2024-01-15T01:41:54.687Z,0
2024-01-15T01:46:59.249Z,0
2024-01-15T01:51:56.563Z,0
2024-01-15T01:56:55.244Z,2.5
2024-01-15T02:01:54.120Z,0
2024-01-15T02:07:00.374Z,0
2024-01-15T02:11:55.714Z,2.5
2024-01-15T02:17:00.670Z,0
2024-01-15T02:21:54.745Z,0
2024-01-15T02:26:53.235Z,0
2024-01-15T02:31:55.621Z,0
2024-01-15T02:36:56.447Z,0
2024-01-15T02:41:59.016Z,0
2024-01-15T02:46:58.109Z,1.5
2024-01-15T02:51:50.776Z,0
2024-01-15T02:56:56.651Z,0
2024-01-15T03:01:58.117Z,0
2024-01-15T03:06:54.786Z,0
2024-01-15T03:11:54.024Z,0
2024-01-15T03:16:57.246Z,0
2024-01-15T03:21:57.167Z,0
2024-01-15T03:26:55.349Z,0
2024-01-15T03:31:53.360Z,3
2024-01-15T03:36:57.499Z,0
2024-01-15T03:41:56.032Z,0
2024-01-15T03:46:58.566Z,2.5
2024-01-15T03:51:55.824Z,0
2024-01-15T03:56:55.271Z,0
2024-01-15T04:01:59.377Z,3
2024-01-15T04:06:56.006Z,0
2024-01-15T04:11:52.346Z,0
2024-01-15T04:16:54.074Z,0
2024-01-15T04:21:49.546Z,0
2024-01-15T04:26:50.524Z,0
2024-01-15T04:31:53.678Z,0
2024-01-15T04:36:54.589Z,0
2024-01-15T04:42:00.809Z,0
2024-01-15T04:47:01.480Z,0
2024-01-15T04:51:54.199Z,1.5
2024-01-15T04:56:53.369Z,0
2024-01-15T05:01:52.857Z,0
2024-01-15T05:06:54.169Z,0
2024-01-15T05:11:54.439Z,0
2024-01-15T05:16:53.729Z,1
2024-01-15T05:22:00.637Z,0
2024-01-15T05:26:57.853Z,0
2024-01-15T05:32:02.384Z,0
2024-01-15T05:36:54.526Z,0
2024-01-15T05:41:55.210Z,0
2024-01-15T05:46:49.682Z,0
2024-01-15T05:51:55.354Z,0
2024-01-15T05:56:52.544Z,1
2024-01-15T06:01:58.414Z,0
2024-01-15T06:06:55.154Z,0
2024-01-15T06:11:54.744Z,0
2024-01-15T06:16:52.331Z,1
2024-01-15T06:22:01.251Z,2.5
2024-01-15T06:26:52.452Z,5.5
2024-01-15T06:32:02.798Z,8.857
2024-01-15T06:36:56.494Z,16.692
2024-01-15T06:42:01.273Z,24.692
2024-01-15T06:47:03.206Z,40.467
2024-01-15T06:51:58.952Z,59.077
2024-01-15T06:57:02.447Z,68.308
2024-01-15T07:02:01.524Z,80.846
2024-01-15T07:06:57.290Z,98.692
2024-01-15T07:11:58.842Z,136.083
2024-01-15T07:17:03.429Z,145.917
2024-01-15T07:22:00.891Z,262.222
2024-01-15T07:26:57.107Z,360
2024-01-15T07:32:03.602Z,395.375
2024-01-15T07:37:10.973Z,463.375
2024-01-15T07:41:58.917Z,533.5
2024-01-15T07:47:04.930Z,551.375
2024-01-15T07:52:00.888Z,537.875
2024-01-15T07:56:59.423Z,477.25
2024-01-15T08:02:04.632Z,412.25
2024-01-15T08:06:54.072Z,411.25
2024-01-15T08:11:51.143Z,466
2024-01-15T08:16:58.951Z,519
2024-01-15T08:21:58.591Z,569.75
2024-01-15T08:26:58.637Z,606.375
2024-01-15T08:32:06.308Z,659.375
2024-01-15T08:37:03.918Z,735.375
2024-01-15T08:41:56.936Z,904.875
2024-01-15T08:46:59.799Z,1270.75
2024-01-15T08:52:01.866Z,1255
2024-01-15T08:56:56.150Z,1370.625
2024-01-15T09:02:01.978Z,2122.167
2024-01-15T09:07:02.572Z,1798.286
2024-01-15T09:12:05.449Z,2353.833
2024-01-15T09:17:05.464Z,2346.167
2024-01-15T09:21:55.709Z,1425.875
2024-01-15T09:27:01.249Z,2190.667
2024-01-15T09:32:00.681Z,2407.5
2024-01-15T09:37:01.804Z,2726.6
2024-01-15T09:42:05.063Z,2286
2024-01-15T09:46:55.219Z,1746.5
2024-01-15T09:52:05.890Z,1973.429
2024-01-15T09:56:56.306Z,1684.143
2024-01-15T10:02:12.152Z,1468.5
2024-01-15T10:06:57.214Z,1858.571
2024-01-15T10:11:57.013Z,2282.667
2024-01-15T10:17:01.269Z,2527
2024-01-15T10:21:53.921Z,2761
2024-01-15T10:27:08.092Z,2695.2
2024-01-15T10:32:06.364Z,2764.4
2024-01-15T10:36:59.654Z,2835.6
2024-01-15T10:42:00.898Z,2803.2
2024-01-15T10:46:59.202Z,2909.6
2024-01-15T10:51:58.607Z,2849.6
2024-01-15T10:57:02.168Z,2837
2024-01-15T11:02:00.644Z,2854.2
2024-01-15T11:06:58.900Z,2798.4
2024-01-15T11:11:56.469Z,2814.2
2024-01-15T11:17:00.714Z,2786.2
2024-01-15T11:21:59.112Z,2539.667
2024-01-15T11:26:58.225Z,2517.5
2024-01-15T11:32:05.297Z,2500.5
2024-01-15T11:37:01.228Z,2341.333
2024-01-15T11:41:52.292Z,1289.875
2024-01-15T11:47:02.140Z,608.75
2024-01-15T11:51:55.613Z,474.625
2024-01-15T11:57:01.496Z,407.125
2024-01-15T12:02:00.538Z,396.75
2024-01-15T12:07:05.747Z,388.25
2024-01-15T12:12:04.448Z,386.25
2024-01-15T12:16:56.337Z,379.75
2024-01-15T12:22:03.310Z,371.875
2024-01-15T12:27:04.776Z,362.25
2024-01-15T12:32:09.398Z,346.875
2024-01-15T12:37:03.239Z,344.625
2024-01-15T12:42:03.705Z,332.375
2024-01-15T12:46:59.980Z,328.25
2024-01-15T12:51:54.605Z,319
2024-01-15T12:56:53.995Z,311.125
2024-01-15T13:02:04.420Z,308.889
2024-01-15T13:06:58.742Z,312.25
2024-01-15T13:11:56.529Z,337.375
2024-01-15T13:17:08.036Z,426.875
2024-01-15T13:22:03.999Z,295.375
2024-01-15T13:26:59.176Z,272.556
2024-01-15T13:31:57.447Z,240
2024-01-15T13:36:58.754Z,233.5
2024-01-15T13:42:03.382Z,232.1
2024-01-15T13:46:57.958Z,218.7
2024-01-15T13:51:59.204Z,220.6
2024-01-15T13:56:57.303Z,209.1
2024-01-15T14:02:04.248Z,205.3
2024-01-15T14:06:59.228Z,196.9
2024-01-15T14:11:53.875Z,190.8
2024-01-15T14:17:00.523Z,181.1
2024-01-15T14:21:57.249Z,176.5
2024-01-15T14:27:06.119Z,158.818
2024-01-15T14:31:58.524Z,150.818
2024-01-15T14:37:02.201Z,113.692
2024-01-15T14:42:02.190Z,99.308
2024-01-15T14:47:00.805Z,86.538
2024-01-15T14:51:53.699Z,75.077
2024-01-15T14:57:00.918Z,75.462
2024-01-15T15:02:02.944Z,59.692
2024-01-15T15:06:57.180Z,60.385
2024-01-15T15:12:02.794Z,40.692
2024-01-15T15:16:57.792Z,29
2024-01-15T15:22:03.957Z,20.154
2024-01-15T15:26:54.895Z,12.923
2024-01-15T15:31:55.562Z,6.667
2024-01-15T15:37:02.559Z,3.444
2024-01-15T15:42:02.063Z,1.611
2024-01-15T15:46:55.163Z,1
2024-01-15T15:51:51.995Z,0
2024-01-15T15:57:00.096Z,0
2024-01-15T16:01:54.865Z,0
2024-01-15T16:07:02.545Z,0
2024-01-15T16:11:52.685Z,2.5
2024-01-15T16:23:00.256Z,1.5
2024-01-15T16:25:54.948Z,0
2024-01-15T16:27:04.287Z,0
2024-01-15T16:32:11.812Z,0
2024-01-15T16:36:56.843Z,0
2024-01-15T16:41:54.669Z,1
2024-01-15T16:46:59.655Z,0
2024-01-15T16:51:57.719Z,0
2024-01-15T16:56:56.628Z,0
2024-01-15T17:01:52.590Z,0
2024-01-15T17:06:58.994Z,0
2024-01-15T17:11:52.137Z,0
2024-01-15T17:16:54.796Z,1.5
2024-01-15T17:21:54.808Z,0
2024-01-15T17:26:58.207Z,1.5
2024-01-15T17:32:01.276Z,2.333
2024-01-15T17:36:55.866Z,0
2024-01-15T17:41:55.521Z,0
2024-01-15T17:46:51.848Z,0
2024-01-15T17:51:51.797Z,0
2024-01-15T17:56:57.422Z,0
2024-01-15T18:02:04.526Z,0
2024-01-15T18:06:55.997Z,1
2024-01-15T18:11:52.401Z,0
2024-01-15T18:16:49.697Z,0
2024-01-15T18:26:56.761Z,0
2024-01-15T18:35:58.074Z,0
2024-01-15T18:36:54.516Z,0
2024-01-15T18:41:55.833Z,0
2024-01-15T18:46:54.012Z,0
2024-01-15T18:52:01.539Z,0
2024-01-15T18:56:52.048Z,0
2024-01-15T19:01:50.528Z,0
2024-01-15T19:06:51.051Z,0
2024-01-15T19:11:55.926Z,0
2024-01-15T19:16:55.279Z,0
2024-01-15T19:21:52.737Z,0
2024-01-15T19:26:52.096Z,0
2024-01-15T19:31:47.910Z,1.5
2024-01-15T19:36:52.708Z,0
2024-01-15T19:41:54.019Z,0
2024-01-15T19:47:02.555Z,0
2024-01-15T19:51:58.587Z,2.5
2024-01-15T19:56:55.417Z,1.5
2024-01-15T20:01:54.047Z,0
2024-01-15T20:06:58.653Z,1.5
2024-01-15T20:11:50.732Z,0
2024-01-15T20:16:52.577Z,1.333
2024-01-15T20:22:02.607Z,0
2024-01-15T20:27:01.390Z,2.5
2024-01-15T20:32:01.816Z,0
2024-01-15T20:36:53.481Z,0
2024-01-15T20:41:54.930Z,1.333
2024-01-15T20:46:58.517Z,2.333
2024-01-15T20:51:59.789Z,1.5
2024-01-15T20:56:53.409Z,0
2024-01-15T21:06:59.584Z,0
2024-01-15T21:11:54.767Z,0
2024-01-15T21:16:54.027Z,0
2024-01-15T21:21:55.727Z,1.5
2024-01-15T21:26:59.692Z,0
2024-01-15T21:31:58.977Z,0
2024-01-15T21:37:03.062Z,1.5
2024-01-15T21:41:56.345Z,0
2024-01-15T21:47:06.020Z,0
2024-01-15T21:52:06.783Z,0
2024-01-15T21:57:07.779Z,0
2024-01-15T22:01:53.063Z,0
2024-01-15T22:07:06.228Z,0
2024-01-15T22:11:56.310Z,0
2024-01-15T22:16:56.788Z,0
2024-01-15T22:21:59.349Z,0
2024-01-15T22:26:59.950Z,0
2024-01-15T22:31:54.528Z,0
2024-01-15T22:36:56.120Z,0
2024-01-15T22:41:49.945Z,0
2024-01-15T22:46:59.273Z,0
2024-01-15T22:51:53.296Z,1
2024-01-15T22:56:49.860Z,0
2024-01-15T23:02:52.296Z,0
2024-01-15T23:06:59.408Z,0
2024-01-15T23:11:59.359Z,0
2024-01-15T23:16:57.220Z,0
2024-01-15T23:22:01.777Z,0
2024-01-15T23:27:04.398Z,0
2024-01-15T23:31:55.889Z,0
2024-01-15T23:36:51.922Z,1
2024-01-15T23:41:57.643Z,0
2024-01-15T23:47:16.161Z,0
2024-01-15T23:51:58.914Z,0
2024-01-15T23:56:59.465Z,0
